sensor_id;sensor_type;location;lat;lon;timestamp;P1;durP1;ratioP1;P2;durP2;ratioP2
15358;SDS011;7779;49.596;11.070;2022-12-10T00:00:37;9.27;;;6.33;;
15358;SDS011;7779;49.596;11.070;2022-12-10T00:03:03;10.10;;;6.87;;
15358;SDS011;7779;49.596;11.070;2022-12-10T00:05:29;9.00;;;6.23;;
15358;SDS011;7779;49.596;11.070;2022-12-10T00:07:55;8.33;;;6.27;;
15358;SDS011;7779;49.596;11.070;2022-12-10T00:10:20;9.57;;;6.40;;
15358;SDS011;7779;49.596;11.070;2022-12-10T00:12:46;8.60;;;6.73;;
15358;SDS011;7779;49.596;11.070;2022-12-10T00:15:12;8.10;;;6.43;;
15358;SDS011;7779;49.596;11.070;2022-12-10T00:17:37;9.47;;;7.00;;
15358;SDS011;7779;49.596;11.070;2022-12-10T00:20:03;9.07;;;6.60;;
15358;SDS011;7779;49.596;11.070;2022-12-10T00:22:29;8.17;;;5.83;;
15358;SDS011;7779;49.596;11.070;2022-12-10T00:24:55;8.50;;;6.80;;
15358;SDS011;7779;49.596;11.070;2022-12-10T00:27:21;9.13;;;7.23;;
15358;SDS011;7779;49.596;11.070;2022-12-10T00:29:46;9.37;;;6.60;;
15358;SDS011;7779;49.596;11.070;2022-12-10T00:32:12;9.10;;;7.13;;
15358;SDS011;7779;49.596;11.070;2022-12-10T00:34:38;8.63;;;6.77;;
15358;SDS011;7779;49.596;11.070;2022-12-10T00:37:03;9.80;;;7.10;;
15358;SDS011;7779;49.596;11.070;2022-12-10T00:39:30;10.80;;;7.50;;
15358;SDS011;7779;49.596;11.070;2022-12-10T00:41:56;12.20;;;8.27;;
15358;SDS011;7779;49.596;11.070;2022-12-10T00:44:22;13.40;;;9.93;;
15358;SDS011;7779;49.596;11.070;2022-12-10T00:46:47;11.57;;;9.07;;
15358;SDS011;7779;49.596;11.070;2022-12-10T00:49:13;11.97;;;8.60;;
15358;SDS011;7779;49.596;11.070;2022-12-10T00:51:39;12.70;;;9.63;;
15358;SDS011;7779;49.596;11.070;2022-12-10T00:54:05;12.80;;;9.57;;
15358;SDS011;7779;49.596;11.070;2022-12-10T00:56:31;12.73;;;9.17;;
15358;SDS011;7779;49.596;11.070;2022-12-10T00:58:58;11.17;;;8.40;;
15358;SDS011;7779;49.596;11.070;2022-12-10T01:01:28;11.87;;;8.17;;
15358;SDS011;7779;49.596;11.070;2022-12-10T01:04:04;9.23;;;6.90;;
15358;SDS011;7779;49.596;11.070;2022-12-10T01:06:45;8.87;;;6.80;;
15358;SDS011;7779;49.596;11.070;2022-12-10T01:09:16;8.67;;;7.00;;
15358;SDS011;7779;49.596;11.070;2022-12-10T01:11:48;9.57;;;6.60;;
15358;SDS011;7779;49.596;11.070;2022-12-10T01:14:17;8.90;;;6.73;;
15358;SDS011;7779;49.596;11.070;2022-12-10T01:16:47;9.53;;;7.00;;
15358;SDS011;7779;49.596;11.070;2022-12-10T01:19:15;9.27;;;7.30;;
15358;SDS011;7779;49.596;11.070;2022-12-10T01:21:41;10.73;;;8.10;;
15358;SDS011;7779;49.596;11.070;2022-12-10T01:24:07;11.27;;;9.13;;
15358;SDS011;7779;49.596;11.070;2022-12-10T01:26:33;10.37;;;8.17;;
15358;SDS011;7779;49.596;11.070;2022-12-10T01:29:00;11.57;;;8.97;;
15358;SDS011;7779;49.596;11.070;2022-12-10T01:31:30;11.03;;;8.60;;
15358;SDS011;7779;49.596;11.070;2022-12-10T01:34:00;12.17;;;8.87;;
15358;SDS011;7779;49.596;11.070;2022-12-10T01:36:32;11.80;;;8.70;;
15358;SDS011;7779;49.596;11.070;2022-12-10T01:39:11;10.13;;;7.20;;
15358;SDS011;7779;49.596;11.070;2022-12-10T01:41:47;10.90;;;8.63;;
15358;SDS011;7779;49.596;11.070;2022-12-10T01:46:46;9.43;;;7.50;;
15358;SDS011;7779;49.596;11.070;2022-12-10T01:49:25;10.17;;;6.67;;
15358;SDS011;7779;49.596;11.070;2022-12-10T01:52:00;8.67;;;7.27;;
15358;SDS011;7779;49.596;11.070;2022-12-10T01:54:29;10.67;;;7.27;;
15358;SDS011;7779;49.596;11.070;2022-12-10T01:57:02;8.80;;;6.27;;
15358;SDS011;7779;49.596;11.070;2022-12-10T01:59:44;11.10;;;6.80;;
15358;SDS011;7779;49.596;11.070;2022-12-10T02:02:23;8.67;;;6.67;;
15358;SDS011;7779;49.596;11.070;2022-12-10T02:05:22;9.87;;;7.37;;
15358;SDS011;7779;49.596;11.070;2022-12-10T02:08:24;7.07;;;5.67;;
15358;SDS011;7779;49.596;11.070;2022-12-10T02:11:14;8.03;;;6.27;;
15358;SDS011;7779;49.596;11.070;2022-12-10T02:13:55;8.67;;;5.67;;
15358;SDS011;7779;49.596;11.070;2022-12-10T02:16:40;10.07;;;6.97;;
15358;SDS011;7779;49.596;11.070;2022-12-10T02:22:30;9.63;;;6.60;;
15358;SDS011;7779;49.596;11.070;2022-12-10T02:25:04;10.17;;;6.93;;
15358;SDS011;7779;49.596;11.070;2022-12-10T02:27:38;9.33;;;6.43;;
15358;SDS011;7779;49.596;11.070;2022-12-10T02:30:38;10.80;;;7.40;;
15358;SDS011;7779;49.596;11.070;2022-12-10T02:33:07;10.00;;;7.33;;
15358;SDS011;7779;49.596;11.070;2022-12-10T02:35:36;9.13;;;6.90;;
15358;SDS011;7779;49.596;11.070;2022-12-10T02:38:10;7.80;;;6.63;;
15358;SDS011;7779;49.596;11.070;2022-12-10T02:40:49;10.13;;;7.80;;
15358;SDS011;7779;49.596;11.070;2022-12-10T02:43:22;11.03;;;7.87;;
15358;SDS011;7779;49.596;11.070;2022-12-10T02:45:52;9.90;;;6.67;;
15358;SDS011;7779;49.596;11.070;2022-12-10T02:48:22;9.20;;;7.17;;
15358;SDS011;7779;49.596;11.070;2022-12-10T02:50:50;9.30;;;7.73;;
15358;SDS011;7779;49.596;11.070;2022-12-10T02:53:16;9.97;;;7.57;;
15358;SDS011;7779;49.596;11.070;2022-12-10T02:59:38;8.47;;;6.70;;
15358;SDS011;7779;49.596;11.070;2022-12-10T03:02:08;9.00;;;5.97;;
15358;SDS011;7779;49.596;11.070;2022-12-10T03:07:58;9.53;;;6.60;;
15358;SDS011;7779;49.596;11.070;2022-12-10T03:13:32;8.43;;;6.97;;
15358;SDS011;7779;49.596;11.070;2022-12-10T03:16:06;8.93;;;6.93;;
15358;SDS011;7779;49.596;11.070;2022-12-10T03:18:35;8.53;;;6.67;;
15358;SDS011;7779;49.596;11.070;2022-12-10T03:21:03;8.53;;;6.63;;
15358;SDS011;7779;49.596;11.070;2022-12-10T03:23:32;9.03;;;6.63;;
15358;SDS011;7779;49.596;11.070;2022-12-10T03:26:02;10.57;;;7.03;;
15358;SDS011;7779;49.596;11.070;2022-12-10T03:28:31;10.83;;;7.13;;
15358;SDS011;7779;49.596;11.070;2022-12-10T03:31:03;8.43;;;6.83;;
15358;SDS011;7779;49.596;11.070;2022-12-10T03:33:31;11.17;;;6.73;;
15358;SDS011;7779;49.596;11.070;2022-12-10T03:35:57;10.00;;;7.20;;
15358;SDS011;7779;49.596;11.070;2022-12-10T03:38:24;9.87;;;6.90;;
15358;SDS011;7779;49.596;11.070;2022-12-10T03:40:50;10.23;;;7.23;;
15358;SDS011;7779;49.596;11.070;2022-12-10T03:43:16;11.47;;;7.10;;
15358;SDS011;7779;49.596;11.070;2022-12-10T03:45:41;9.43;;;7.23;;
15358;SDS011;7779;49.596;11.070;2022-12-10T03:48:07;8.70;;;7.30;;
15358;SDS011;7779;49.596;11.070;2022-12-10T03:50:33;10.10;;;7.07;;
15358;SDS011;7779;49.596;11.070;2022-12-10T03:52:58;10.10;;;7.33;;
15358;SDS011;7779;49.596;11.070;2022-12-10T03:55:24;9.13;;;6.83;;
15358;SDS011;7779;49.596;11.070;2022-12-10T03:57:50;9.33;;;7.07;;
15358;SDS011;7779;49.596;11.070;2022-12-10T04:00:16;10.63;;;7.07;;
15358;SDS011;7779;49.596;11.070;2022-12-10T04:02:42;10.30;;;7.13;;
15358;SDS011;7779;49.596;11.070;2022-12-10T04:05:08;9.37;;;7.10;;
15358;SDS011;7779;49.596;11.070;2022-12-10T04:07:34;10.30;;;7.60;;
15358;SDS011;7779;49.596;11.070;2022-12-10T04:10:00;10.70;;;7.40;;
15358;SDS011;7779;49.596;11.070;2022-12-10T04:12:26;9.70;;;7.50;;
15358;SDS011;7779;49.596;11.070;2022-12-10T04:14:51;8.80;;;7.00;;
15358;SDS011;7779;49.596;11.070;2022-12-10T04:17:36;9.33;;;7.23;;
15358;SDS011;7779;49.596;11.070;2022-12-10T04:20:02;9.60;;;8.00;;
15358;SDS011;7779;49.596;11.070;2022-12-10T04:22:28;11.43;;;7.57;;
15358;SDS011;7779;49.596;11.070;2022-12-10T04:25:12;11.87;;;8.53;;
15358;SDS011;7779;49.596;11.070;2022-12-10T04:27:56;10.83;;;7.53;;
15358;SDS011;7779;49.596;11.070;2022-12-10T04:30:22;9.03;;;7.50;;
15358;SDS011;7779;49.596;11.070;2022-12-10T04:32:49;11.07;;;7.57;;
15358;SDS011;7779;49.596;11.070;2022-12-10T04:35:14;11.37;;;7.57;;
15358;SDS011;7779;49.596;11.070;2022-12-10T04:37:40;10.40;;;7.70;;
15358;SDS011;7779;49.596;11.070;2022-12-10T04:40:06;10.83;;;8.03;;
15358;SDS011;7779;49.596;11.070;2022-12-10T04:42:32;11.03;;;8.07;;
15358;SDS011;7779;49.596;11.070;2022-12-10T04:44:58;10.07;;;7.80;;
15358;SDS011;7779;49.596;11.070;2022-12-10T04:47:24;8.77;;;7.17;;
15358;SDS011;7779;49.596;11.070;2022-12-10T04:49:50;11.40;;;7.37;;
15358;SDS011;7779;49.596;11.070;2022-12-10T04:52:16;9.90;;;7.13;;
15358;SDS011;7779;49.596;11.070;2022-12-10T04:54:42;10.30;;;7.20;;
15358;SDS011;7779;49.596;11.070;2022-12-10T04:57:09;11.03;;;7.50;;
15358;SDS011;7779;49.596;11.070;2022-12-10T04:59:36;9.17;;;7.00;;
15358;SDS011;7779;49.596;11.070;2022-12-10T05:02:02;13.07;;;8.20;;
15358;SDS011;7779;49.596;11.070;2022-12-10T05:04:30;8.47;;;6.40;;
15358;SDS011;7779;49.596;11.070;2022-12-10T05:06:56;9.97;;;7.90;;
15358;SDS011;7779;49.596;11.070;2022-12-10T05:09:21;8.53;;;6.87;;
15358;SDS011;7779;49.596;11.070;2022-12-10T05:11:48;8.93;;;7.37;;
15358;SDS011;7779;49.596;11.070;2022-12-10T05:14:14;10.83;;;7.80;;
15358;SDS011;7779;49.596;11.070;2022-12-10T05:16:40;10.40;;;7.80;;
15358;SDS011;7779;49.596;11.070;2022-12-10T05:19:08;12.00;;;8.10;;
15358;SDS011;7779;49.596;11.070;2022-12-10T05:21:34;10.40;;;7.23;;
15358;SDS011;7779;49.596;11.070;2022-12-10T05:24:18;10.63;;;7.67;;
15358;SDS011;7779;49.596;11.070;2022-12-10T05:26:44;10.47;;;7.40;;
15358;SDS011;7779;49.596;11.070;2022-12-10T05:29:11;10.60;;;7.70;;
15358;SDS011;7779;49.596;11.070;2022-12-10T05:31:38;9.77;;;7.47;;
15358;SDS011;7779;49.596;11.070;2022-12-10T05:34:03;10.40;;;7.90;;
15358;SDS011;7779;49.596;11.070;2022-12-10T05:36:30;10.43;;;7.57;;
15358;SDS011;7779;49.596;11.070;2022-12-10T05:38:57;9.83;;;7.00;;
15358;SDS011;7779;49.596;11.070;2022-12-10T05:41:26;10.10;;;7.03;;
15358;SDS011;7779;49.596;11.070;2022-12-10T05:43:55;8.90;;;7.30;;
15358;SDS011;7779;49.596;11.070;2022-12-10T05:46:30;9.57;;;7.20;;
15358;SDS011;7779;49.596;11.070;2022-12-10T05:48:57;10.60;;;7.90;;
15358;SDS011;7779;49.596;11.070;2022-12-10T05:51:28;10.50;;;7.40;;
15358;SDS011;7779;49.596;11.070;2022-12-10T05:53:58;10.20;;;7.47;;
15358;SDS011;7779;49.596;11.070;2022-12-10T05:56:26;10.20;;;7.80;;
15358;SDS011;7779;49.596;11.070;2022-12-10T05:58:53;10.60;;;7.63;;
15358;SDS011;7779;49.596;11.070;2022-12-10T06:01:24;11.87;;;8.07;;
15358;SDS011;7779;49.596;11.070;2022-12-10T06:03:53;9.97;;;7.07;;
15358;SDS011;7779;49.596;11.070;2022-12-10T06:06:20;11.07;;;7.83;;
15358;SDS011;7779;49.596;11.070;2022-12-10T06:08:48;13.43;;;8.80;;
15358;SDS011;7779;49.596;11.070;2022-12-10T06:11:14;11.73;;;7.63;;
15358;SDS011;7779;49.596;11.070;2022-12-10T06:13:40;11.43;;;8.60;;
15358;SDS011;7779;49.596;11.070;2022-12-10T06:16:06;10.23;;;7.67;;
15358;SDS011;7779;49.596;11.070;2022-12-10T06:18:35;10.90;;;7.77;;
15358;SDS011;7779;49.596;11.070;2022-12-10T06:21:05;10.00;;;8.23;;
15358;SDS011;7779;49.596;11.070;2022-12-10T06:23:35;10.93;;;8.43;;
15358;SDS011;7779;49.596;11.070;2022-12-10T06:26:10;10.27;;;7.80;;
15358;SDS011;7779;49.596;11.070;2022-12-10T06:28:39;10.30;;;8.27;;
15358;SDS011;7779;49.596;11.070;2022-12-10T06:31:06;9.70;;;7.67;;
15358;SDS011;7779;49.596;11.070;2022-12-10T06:33:31;10.97;;;7.07;;
15358;SDS011;7779;49.596;11.070;2022-12-10T06:35:57;11.27;;;7.87;;
15358;SDS011;7779;49.596;11.070;2022-12-10T06:38:24;10.17;;;7.60;;
15358;SDS011;7779;49.596;11.070;2022-12-10T06:40:49;10.20;;;8.10;;
15358;SDS011;7779;49.596;11.070;2022-12-10T06:43:16;10.43;;;8.40;;
15358;SDS011;7779;49.596;11.070;2022-12-10T06:45:42;10.60;;;8.23;;
15358;SDS011;7779;49.596;11.070;2022-12-10T06:48:08;10.50;;;8.13;;
15358;SDS011;7779;49.596;11.070;2022-12-10T06:50:34;10.63;;;8.80;;
15358;SDS011;7779;49.596;11.070;2022-12-10T06:53:01;12.33;;;8.67;;
15358;SDS011;7779;49.596;11.070;2022-12-10T06:55:27;12.37;;;9.37;;
15358;SDS011;7779;49.596;11.070;2022-12-10T06:57:54;12.73;;;9.17;;
15358;SDS011;7779;49.596;11.070;2022-12-10T07:00:20;12.90;;;9.50;;
15358;SDS011;7779;49.596;11.070;2022-12-10T07:02:46;11.17;;;9.13;;
15358;SDS011;7779;49.596;11.070;2022-12-10T07:05:13;11.80;;;9.13;;
15358;SDS011;7779;49.596;11.070;2022-12-10T07:07:39;14.47;;;10.63;;
15358;SDS011;7779;49.596;11.070;2022-12-10T07:10:05;13.37;;;9.83;;
15358;SDS011;7779;49.596;11.070;2022-12-10T07:12:31;12.73;;;9.53;;
15358;SDS011;7779;49.596;11.070;2022-12-10T07:14:57;11.87;;;9.20;;
15358;SDS011;7779;49.596;11.070;2022-12-10T07:17:23;14.23;;;10.10;;
15358;SDS011;7779;49.596;11.070;2022-12-10T07:19:48;13.53;;;9.20;;
15358;SDS011;7779;49.596;11.070;2022-12-10T07:22:14;12.77;;;9.20;;
15358;SDS011;7779;49.596;11.070;2022-12-10T07:24:40;13.10;;;9.87;;
15358;SDS011;7779;49.596;11.070;2022-12-10T07:27:06;12.33;;;9.50;;
15358;SDS011;7779;49.596;11.070;2022-12-10T07:29:33;11.37;;;9.53;;
15358;SDS011;7779;49.596;11.070;2022-12-10T07:32:00;12.63;;;9.70;;
15358;SDS011;7779;49.596;11.070;2022-12-10T07:34:25;13.70;;;10.27;;
15358;SDS011;7779;49.596;11.070;2022-12-10T07:36:51;13.73;;;9.73;;
15358;SDS011;7779;49.596;11.070;2022-12-10T07:39:17;12.83;;;9.63;;
15358;SDS011;7779;49.596;11.070;2022-12-10T07:41:52;13.67;;;9.73;;
15358;SDS011;7779;49.596;11.070;2022-12-10T07:44:19;12.43;;;8.97;;
15358;SDS011;7779;49.596;11.070;2022-12-10T07:46:48;13.37;;;9.93;;
15358;SDS011;7779;49.596;11.070;2022-12-10T07:49:16;12.87;;;9.53;;
15358;SDS011;7779;49.596;11.070;2022-12-10T07:51:46;12.60;;;9.27;;
15358;SDS011;7779;49.596;11.070;2022-12-10T07:54:14;14.90;;;10.70;;
15358;SDS011;7779;49.596;11.070;2022-12-10T07:56:41;13.73;;;11.00;;
15358;SDS011;7779;49.596;11.070;2022-12-10T07:59:07;14.93;;;10.57;;
15358;SDS011;7779;49.596;11.070;2022-12-10T08:01:33;14.17;;;11.17;;
15358;SDS011;7779;49.596;11.070;2022-12-10T08:03:59;12.27;;;9.63;;
15358;SDS011;7779;49.596;11.070;2022-12-10T08:06:26;14.83;;;10.57;;
15358;SDS011;7779;49.596;11.070;2022-12-10T08:08:53;13.30;;;10.47;;
15358;SDS011;7779;49.596;11.070;2022-12-10T08:11:20;13.30;;;10.17;;
15358;SDS011;7779;49.596;11.070;2022-12-10T08:13:47;12.77;;;10.00;;
15358;SDS011;7779;49.596;11.070;2022-12-10T08:16:15;13.97;;;10.83;;
15358;SDS011;7779;49.596;11.070;2022-12-10T08:18:48;13.70;;;10.67;;
15358;SDS011;7779;49.596;11.070;2022-12-10T08:21:15;16.40;;;12.23;;
15358;SDS011;7779;49.596;11.070;2022-12-10T08:23:44;12.73;;;10.50;;
15358;SDS011;7779;49.596;11.070;2022-12-10T08:26:12;14.23;;;10.37;;
15358;SDS011;7779;49.596;11.070;2022-12-10T08:28:41;14.73;;;10.57;;
15358;SDS011;7779;49.596;11.070;2022-12-10T08:31:07;13.33;;;10.53;;
15358;SDS011;7779;49.596;11.070;2022-12-10T08:33:36;13.47;;;10.07;;
15358;SDS011;7779;49.596;11.070;2022-12-10T08:36:03;14.47;;;10.83;;
15358;SDS011;7779;49.596;11.070;2022-12-10T08:38:31;12.80;;;10.23;;
15358;SDS011;7779;49.596;11.070;2022-12-10T08:40:58;13.83;;;10.47;;
15358;SDS011;7779;49.596;11.070;2022-12-10T08:43:24;15.17;;;11.10;;
15358;SDS011;7779;49.596;11.070;2022-12-10T08:45:50;15.87;;;11.50;;
15358;SDS011;7779;49.596;11.070;2022-12-10T08:48:16;15.30;;;10.77;;
15358;SDS011;7779;49.596;11.070;2022-12-10T08:50:41;17.30;;;12.27;;
15358;SDS011;7779;49.596;11.070;2022-12-10T08:53:07;15.40;;;11.93;;
15358;SDS011;7779;49.596;11.070;2022-12-10T08:55:37;16.30;;;12.70;;
15358;SDS011;7779;49.596;11.070;2022-12-10T08:58:04;16.23;;;12.23;;
15358;SDS011;7779;49.596;11.070;2022-12-10T09:00:30;18.50;;;13.20;;
15358;SDS011;7779;49.596;11.070;2022-12-10T09:02:56;19.03;;;12.90;;
15358;SDS011;7779;49.596;11.070;2022-12-10T09:05:22;17.97;;;13.20;;
15358;SDS011;7779;49.596;11.070;2022-12-10T09:07:47;16.13;;;12.63;;
15358;SDS011;7779;49.596;11.070;2022-12-10T09:10:14;16.40;;;12.33;;
15358;SDS011;7779;49.596;11.070;2022-12-10T09:12:43;16.37;;;11.70;;
15358;SDS011;7779;49.596;11.070;2022-12-10T09:15:09;16.73;;;12.83;;
15358;SDS011;7779;49.596;11.070;2022-12-10T09:17:35;16.43;;;12.37;;
15358;SDS011;7779;49.596;11.070;2022-12-10T09:20:03;16.73;;;12.70;;
15358;SDS011;7779;49.596;11.070;2022-12-10T09:22:31;16.73;;;13.50;;
15358;SDS011;7779;49.596;11.070;2022-12-10T09:24:57;16.70;;;12.73;;
15358;SDS011;7779;49.596;11.070;2022-12-10T09:27:23;16.53;;;12.60;;
15358;SDS011;7779;49.596;11.070;2022-12-10T09:29:48;16.30;;;12.33;;
15358;SDS011;7779;49.596;11.070;2022-12-10T09:32:14;15.10;;;12.00;;
15358;SDS011;7779;49.596;11.070;2022-12-10T09:34:40;18.50;;;13.53;;
15358;SDS011;7779;49.596;11.070;2022-12-10T09:37:06;20.27;;;13.83;;
15358;SDS011;7779;49.596;11.070;2022-12-10T09:39:31;20.30;;;14.47;;
15358;SDS011;7779;49.596;11.070;2022-12-10T09:42:03;18.27;;;13.23;;
15358;SDS011;7779;49.596;11.070;2022-12-10T09:50:31;18.57;;;12.70;;
15358;SDS011;7779;49.596;11.070;2022-12-10T09:53:03;16.97;;;13.27;;
15358;SDS011;7779;49.596;11.070;2022-12-10T09:55:40;17.60;;;12.80;;
15358;SDS011;7779;49.596;11.070;2022-12-10T09:58:18;16.80;;;12.57;;
15358;SDS011;7779;49.596;11.070;2022-12-10T10:00:52;16.53;;;12.97;;
15358;SDS011;7779;49.596;11.070;2022-12-10T10:03:23;16.77;;;12.97;;
15358;SDS011;7779;49.596;11.070;2022-12-10T10:05:50;17.40;;;12.27;;
15358;SDS011;7779;49.596;11.070;2022-12-10T10:11:18;17.07;;;12.63;;
15358;SDS011;7779;49.596;11.070;2022-12-10T10:13:50;14.23;;;11.27;;
15358;SDS011;7779;49.596;11.070;2022-12-10T10:16:23;16.77;;;12.87;;
15358;SDS011;7779;49.596;11.070;2022-12-10T10:18:57;15.43;;;11.90;;
15358;SDS011;7779;49.596;11.070;2022-12-10T10:21:41;18.00;;;12.57;;
15358;SDS011;7779;49.596;11.070;2022-12-10T10:24:12;17.17;;;12.83;;
15358;SDS011;7779;49.596;11.070;2022-12-10T10:26:46;15.77;;;12.47;;
15358;SDS011;7779;49.596;11.070;2022-12-10T10:29:14;15.83;;;12.30;;
15358;SDS011;7779;49.596;11.070;2022-12-10T10:31:44;18.63;;;12.80;;
15358;SDS011;7779;49.596;11.070;2022-12-10T10:34:22;17.90;;;13.70;;
15358;SDS011;7779;49.596;11.070;2022-12-10T10:36:54;16.93;;;12.57;;
15358;SDS011;7779;49.596;11.070;2022-12-10T10:39:29;15.97;;;12.43;;
15358;SDS011;7779;49.596;11.070;2022-12-10T10:41:58;20.90;;;16.47;;
15358;SDS011;7779;49.596;11.070;2022-12-10T10:44:34;22.57;;;16.93;;
15358;SDS011;7779;49.596;11.070;2022-12-10T10:47:03;17.83;;;13.30;;
15358;SDS011;7779;49.596;11.070;2022-12-10T10:49:57;20.47;;;13.10;;
15358;SDS011;7779;49.596;11.070;2022-12-10T10:52:25;19.53;;;13.83;;
15358;SDS011;7779;49.596;11.070;2022-12-10T10:55:01;18.83;;;13.93;;
15358;SDS011;7779;49.596;11.070;2022-12-10T10:57:29;19.07;;;14.27;;
15358;SDS011;7779;49.596;11.070;2022-12-10T11:00:07;17.43;;;14.13;;
15358;SDS011;7779;49.596;11.070;2022-12-10T11:02:47;18.73;;;13.73;;
15358;SDS011;7779;49.596;11.070;2022-12-10T11:07:58;17.17;;;13.23;;
15358;SDS011;7779;49.596;11.070;2022-12-10T11:10:28;19.00;;;13.43;;
15358;SDS011;7779;49.596;11.070;2022-12-10T11:13:14;17.97;;;13.70;;
15358;SDS011;7779;49.596;11.070;2022-12-10T11:15:56;18.27;;;13.47;;
15358;SDS011;7779;49.596;11.070;2022-12-10T11:18:59;18.37;;;13.43;;
15358;SDS011;7779;49.596;11.070;2022-12-10T11:21:31;16.00;;;13.33;;
15358;SDS011;7779;49.596;11.070;2022-12-10T11:23:59;17.37;;;13.17;;
15358;SDS011;7779;49.596;11.070;2022-12-10T11:26:43;18.03;;;14.17;;
15358;SDS011;7779;49.596;11.070;2022-12-10T11:35:10;16.57;;;13.10;;
15358;SDS011;7779;49.596;11.070;2022-12-10T11:38:20;17.47;;;12.60;;
15358;SDS011;7779;49.596;11.070;2022-12-10T11:41:15;17.47;;;12.87;;
15358;SDS011;7779;49.596;11.070;2022-12-10T11:44:13;17.63;;;13.63;;
15358;SDS011;7779;49.596;11.070;2022-12-10T11:47:12;19.20;;;13.97;;
15358;SDS011;7779;49.596;11.070;2022-12-10T11:50:02;17.07;;;13.23;;
15358;SDS011;7779;49.596;11.070;2022-12-10T11:58:20;18.17;;;13.43;;
15358;SDS011;7779;49.596;11.070;2022-12-10T12:03:59;17.73;;;13.60;;
15358;SDS011;7779;49.596;11.070;2022-12-10T12:07:00;17.63;;;13.27;;
15358;SDS011;7779;49.596;11.070;2022-12-10T12:12:59;17.37;;;13.67;;
15358;SDS011;7779;49.596;11.070;2022-12-10T12:15:44;18.80;;;13.37;;
15358;SDS011;7779;49.596;11.070;2022-12-10T12:21:27;20.07;;;13.87;;
15358;SDS011;7779;49.596;11.070;2022-12-10T12:26:45;18.67;;;13.87;;
15358;SDS011;7779;49.596;11.070;2022-12-10T12:32:09;17.97;;;14.13;;
15358;SDS011;7779;49.596;11.070;2022-12-10T12:37:34;18.87;;;14.33;;
15358;SDS011;7779;49.596;11.070;2022-12-10T12:43:01;16.67;;;13.27;;
15358;SDS011;7779;49.596;11.070;2022-12-10T12:45:38;18.20;;;13.67;;
15358;SDS011;7779;49.596;11.070;2022-12-10T12:51:17;18.83;;;14.10;;
15358;SDS011;7779;49.596;11.070;2022-12-10T12:53:51;18.90;;;14.20;;
15358;SDS011;7779;49.596;11.070;2022-12-10T13:02:51;18.53;;;13.73;;
15358;SDS011;7779;49.596;11.070;2022-12-10T13:05:50;17.87;;;13.80;;
15358;SDS011;7779;49.596;11.070;2022-12-10T13:22:09;16.33;;;13.27;;
15358;SDS011;7779;49.596;11.070;2022-12-10T13:25:04;16.47;;;13.00;;
15358;SDS011;7779;49.596;11.070;2022-12-10T13:27:38;17.40;;;13.73;;
15358;SDS011;7779;49.596;11.070;2022-12-10T13:43:29;20.20;;;14.43;;
15358;SDS011;7779;49.596;11.070;2022-12-10T13:49:20;29.47;;;14.47;;
15358;SDS011;7779;49.596;11.070;2022-12-10T13:57:37;18.43;;;13.90;;
15358;SDS011;7779;49.596;11.070;2022-12-10T14:00:14;17.33;;;13.03;;
15358;SDS011;7779;49.596;11.070;2022-12-10T14:02:56;17.27;;;13.90;;
15358;SDS011;7779;49.596;11.070;2022-12-10T14:08:40;16.77;;;13.63;;
15358;SDS011;7779;49.596;11.070;2022-12-10T14:11:29;17.47;;;13.87;;
15358;SDS011;7779;49.596;11.070;2022-12-10T14:14:01;18.33;;;14.17;;
15358;SDS011;7779;49.596;11.070;2022-12-10T14:16:31;17.00;;;13.73;;
15358;SDS011;7779;49.596;11.070;2022-12-10T14:19:02;18.57;;;13.67;;
15358;SDS011;7779;49.596;11.070;2022-12-10T14:21:33;17.37;;;14.07;;
15358;SDS011;7779;49.596;11.070;2022-12-10T14:24:02;20.00;;;14.40;;
15358;SDS011;7779;49.596;11.070;2022-12-10T14:26:29;17.40;;;13.50;;
15358;SDS011;7779;49.596;11.070;2022-12-10T14:31:47;18.33;;;14.60;;
15358;SDS011;7779;49.596;11.070;2022-12-10T14:34:18;20.20;;;15.13;;
15358;SDS011;7779;49.596;11.070;2022-12-10T14:36:52;17.53;;;14.00;;
15358;SDS011;7779;49.596;11.070;2022-12-10T14:39:24;19.90;;;14.63;;
15358;SDS011;7779;49.596;11.070;2022-12-10T14:41:59;22.30;;;14.23;;
15358;SDS011;7779;49.596;11.070;2022-12-10T14:44:29;27.60;;;20.73;;
15358;SDS011;7779;49.596;11.070;2022-12-10T14:47:03;33.97;;;21.90;;
15358;SDS011;7779;49.596;11.070;2022-12-10T14:49:38;23.63;;;17.20;;
15358;SDS011;7779;49.596;11.070;2022-12-10T14:52:11;21.37;;;15.30;;
15358;SDS011;7779;49.596;11.070;2022-12-10T14:54:47;21.77;;;15.90;;
15358;SDS011;7779;49.596;11.070;2022-12-10T14:57:18;20.63;;;14.33;;
15358;SDS011;7779;49.596;11.070;2022-12-10T14:59:56;18.30;;;14.13;;
15358;SDS011;7779;49.596;11.070;2022-12-10T15:02:36;21.03;;;15.03;;
15358;SDS011;7779;49.596;11.070;2022-12-10T15:05:26;19.00;;;14.37;;
15358;SDS011;7779;49.596;11.070;2022-12-10T15:07:55;18.53;;;13.60;;
15358;SDS011;7779;49.596;11.070;2022-12-10T15:10:31;19.03;;;13.90;;
15358;SDS011;7779;49.596;11.070;2022-12-10T15:16:04;15.70;;;11.63;;
15358;SDS011;7779;49.596;11.070;2022-12-10T15:18:39;16.43;;;12.33;;
15358;SDS011;7779;49.596;11.070;2022-12-10T15:21:09;16.10;;;11.63;;
15358;SDS011;7779;49.596;11.070;2022-12-10T15:23:40;17.87;;;12.90;;
15358;SDS011;7779;49.596;11.070;2022-12-10T15:26:14;17.97;;;13.63;;
15358;SDS011;7779;49.596;11.070;2022-12-10T15:28:52;18.10;;;13.20;;
15358;SDS011;7779;49.596;11.070;2022-12-10T15:31:47;19.20;;;14.13;;
15358;SDS011;7779;49.596;11.070;2022-12-10T15:34:18;19.33;;;13.73;;
15358;SDS011;7779;49.596;11.070;2022-12-10T15:36:51;15.83;;;11.60;;
15358;SDS011;7779;49.596;11.070;2022-12-10T15:39:25;13.50;;;10.20;;
15358;SDS011;7779;49.596;11.070;2022-12-10T15:42:05;18.37;;;13.00;;
15358;SDS011;7779;49.596;11.070;2022-12-10T15:44:36;16.87;;;12.33;;
15358;SDS011;7779;49.596;11.070;2022-12-10T15:49:40;14.53;;;10.07;;
15358;SDS011;7779;49.596;11.070;2022-12-10T15:52:06;15.00;;;10.57;;
15358;SDS011;7779;49.596;11.070;2022-12-10T15:54:38;15.87;;;10.93;;
15358;SDS011;7779;49.596;11.070;2022-12-10T15:57:14;19.57;;;14.10;;
15358;SDS011;7779;49.596;11.070;2022-12-10T15:59:50;12.67;;;9.13;;
15358;SDS011;7779;49.596;11.070;2022-12-10T16:05:28;13.63;;;10.90;;
15358;SDS011;7779;49.596;11.070;2022-12-10T16:08:01;12.57;;;9.57;;
15358;SDS011;7779;49.596;11.070;2022-12-10T16:10:37;13.97;;;9.83;;
15358;SDS011;7779;49.596;11.070;2022-12-10T16:13:07;19.73;;;13.97;;
15358;SDS011;7779;49.596;11.070;2022-12-10T16:15:45;17.03;;;12.40;;
15358;SDS011;7779;49.596;11.070;2022-12-10T16:18:16;15.87;;;11.47;;
15358;SDS011;7779;49.596;11.070;2022-12-10T16:20:42;16.07;;;11.93;;
15358;SDS011;7779;49.596;11.070;2022-12-10T16:23:08;13.30;;;10.07;;
15358;SDS011;7779;49.596;11.070;2022-12-10T16:25:34;11.90;;;8.87;;
15358;SDS011;7779;49.596;11.070;2022-12-10T16:28:02;11.53;;;8.63;;
15358;SDS011;7779;49.596;11.070;2022-12-10T16:30:36;11.27;;;8.80;;
15358;SDS011;7779;49.596;11.070;2022-12-10T16:33:07;10.83;;;8.33;;
15358;SDS011;7779;49.596;11.070;2022-12-10T16:35:33;11.53;;;8.60;;
15358;SDS011;7779;49.596;11.070;2022-12-10T16:37:59;10.30;;;8.20;;
15358;SDS011;7779;49.596;11.070;2022-12-10T16:40:26;12.23;;;9.10;;
15358;SDS011;7779;49.596;11.070;2022-12-10T16:42:53;11.00;;;8.30;;
15358;SDS011;7779;49.596;11.070;2022-12-10T16:45:22;10.83;;;8.37;;
15358;SDS011;7779;49.596;11.070;2022-12-10T16:47:53;10.57;;;8.20;;
15358;SDS011;7779;49.596;11.070;2022-12-10T16:50:20;10.10;;;7.80;;
15358;SDS011;7779;49.596;11.070;2022-12-10T16:52:47;9.33;;;7.63;;